Terminal Aerodrome Forecast
Issued by NWS Twin Cities, MN

Home | Current Version | Previous Version | Text Only | Print | Product List | Glossary On
Versions: 1 2 3 4 5 6 7 8 9 10 11 12 13 14 15 16 17 18 19 20 21 22 23 24 25 26
709
FTUS43 KMPX 231724
TAFSTC
TAF
KSTC 231724Z 2318/2418 24011KT P6SM VCSH SCT025 BKN045
      TEMPO 2320/2323 4SM -TSRA OVC025CB
     FM240000 22009KT P6SM BKN060
     FM240900 28003KT 4SM BR SCT100
     FM241300 30004KT P6SM SCT200=

USA.gov is the U.S. government's official web portal to all federal, state and local government web resources and services.